sensor_id;sensor_type;location;lat;lon;timestamp;P1;durP1;ratioP1;P2;durP2;ratioP2
30723;SDS011;17473;52.286;20.930;2023-08-24T00:02:01;6.60;;;3.30;;
30723;SDS011;17473;52.286;20.930;2023-08-24T00:04:29;6.55;;;3.47;;
30723;SDS011;17473;52.286;20.930;2023-08-24T00:06:56;4.82;;;2.88;;
30723;SDS011;17473;52.286;20.930;2023-08-24T00:09:23;6.38;;;2.90;;
30723;SDS011;17473;52.286;20.930;2023-08-24T00:11:51;5.82;;;2.80;;
30723;SDS011;17473;52.286;20.930;2023-08-24T00:14:19;5.05;;;3.17;;
30723;SDS011;17473;52.286;20.930;2023-08-24T00:16:46;6.68;;;3.10;;
30723;SDS011;17473;52.286;20.930;2023-08-24T00:19:13;4.20;;;3.20;;
30723;SDS011;17473;52.286;20.930;2023-08-24T00:21:40;3.85;;;3.08;;
30723;SDS011;17473;52.286;20.930;2023-08-24T00:24:08;6.85;;;2.95;;
30723;SDS011;17473;52.286;20.930;2023-08-24T00:26:35;6.72;;;3.00;;
30723;SDS011;17473;52.286;20.930;2023-08-24T00:29:02;8.38;;;2.80;;
30723;SDS011;17473;52.286;20.930;2023-08-24T00:31:29;7.40;;;3.05;;
30723;SDS011;17473;52.286;20.930;2023-08-24T00:33:56;8.00;;;3.10;;
30723;SDS011;17473;52.286;20.930;2023-08-24T00:36:23;12.02;;;4.85;;
30723;SDS011;17473;52.286;20.930;2023-08-24T00:38:51;4.55;;;3.15;;
30723;SDS011;17473;52.286;20.930;2023-08-24T00:41:19;4.97;;;2.95;;
30723;SDS011;17473;52.286;20.930;2023-08-24T00:43:48;5.55;;;3.78;;
30723;SDS011;17473;52.286;20.930;2023-08-24T00:46:16;6.57;;;3.10;;
30723;SDS011;17473;52.286;20.930;2023-08-24T00:48:45;3.47;;;3.17;;
30723;SDS011;17473;52.286;20.930;2023-08-24T00:51:12;4.47;;;3.08;;
30723;SDS011;17473;52.286;20.930;2023-08-24T00:53:40;8.57;;;3.60;;
30723;SDS011;17473;52.286;20.930;2023-08-24T00:56:07;8.52;;;3.55;;
30723;SDS011;17473;52.286;20.930;2023-08-24T00:58:34;4.40;;;3.50;;
30723;SDS011;17473;52.286;20.930;2023-08-24T01:01:02;5.97;;;3.30;;
30723;SDS011;17473;52.286;20.930;2023-08-24T01:03:30;6.88;;;3.85;;
30723;SDS011;17473;52.286;20.930;2023-08-24T01:05:57;6.40;;;3.67;;
30723;SDS011;17473;52.286;20.930;2023-08-24T01:08:24;6.55;;;3.10;;
30723;SDS011;17473;52.286;20.930;2023-08-24T01:17:01;7.03;;;3.45;;
30723;SDS011;17473;52.286;20.930;2023-08-24T01:19:39;5.57;;;3.17;;
30723;SDS011;17473;52.286;20.930;2023-08-24T01:27:53;7.13;;;2.85;;
30723;SDS011;17473;52.286;20.930;2023-08-24T01:30:21;5.38;;;3.03;;
30723;SDS011;17473;52.286;20.930;2023-08-24T01:32:48;6.63;;;2.67;;
30723;SDS011;17473;52.286;20.930;2023-08-24T01:35:15;6.45;;;3.33;;
30723;SDS011;17473;52.286;20.930;2023-08-24T01:37:43;15.13;;;3.45;;
30723;SDS011;17473;52.286;20.930;2023-08-24T01:40:12;5.43;;;3.20;;
30723;SDS011;17473;52.286;20.930;2023-08-24T01:43:15;6.15;;;3.45;;
30723;SDS011;17473;52.286;20.930;2023-08-24T01:46:06;5.72;;;3.17;;
30723;SDS011;17473;52.286;20.930;2023-08-24T01:48:35;8.48;;;2.88;;
30723;SDS011;17473;52.286;20.930;2023-08-24T01:51:03;3.40;;;2.80;;
30723;SDS011;17473;52.286;20.930;2023-08-24T01:53:31;7.75;;;3.28;;
30723;SDS011;17473;52.286;20.930;2023-08-24T01:55:59;3.55;;;2.65;;
30723;SDS011;17473;52.286;20.930;2023-08-24T01:58:26;4.72;;;3.05;;
30723;SDS011;17473;52.286;20.930;2023-08-24T02:00:53;7.03;;;3.22;;
30723;SDS011;17473;52.286;20.930;2023-08-24T02:03:20;8.93;;;3.38;;
30723;SDS011;17473;52.286;20.930;2023-08-24T02:05:47;7.45;;;3.17;;
30723;SDS011;17473;52.286;20.930;2023-08-24T02:08:14;9.48;;;3.67;;
30723;SDS011;17473;52.286;20.930;2023-08-24T02:10:41;3.58;;;2.97;;
30723;SDS011;17473;52.286;20.930;2023-08-24T02:13:08;5.75;;;3.15;;
30723;SDS011;17473;52.286;20.930;2023-08-24T02:15:37;5.20;;;3.22;;
30723;SDS011;17473;52.286;20.930;2023-08-24T02:18:08;4.22;;;3.03;;
30723;SDS011;17473;52.286;20.930;2023-08-24T02:20:36;5.90;;;3.17;;
30723;SDS011;17473;52.286;20.930;2023-08-24T02:23:04;3.88;;;3.20;;
30723;SDS011;17473;52.286;20.930;2023-08-24T02:25:32;7.18;;;3.50;;
30723;SDS011;17473;52.286;20.930;2023-08-24T02:28:02;4.53;;;3.13;;
30723;SDS011;17473;52.286;20.930;2023-08-24T02:30:29;4.95;;;3.30;;
30723;SDS011;17473;52.286;20.930;2023-08-24T02:32:57;7.25;;;3.13;;
30723;SDS011;17473;52.286;20.930;2023-08-24T02:35:24;5.30;;;3.08;;
30723;SDS011;17473;52.286;20.930;2023-08-24T02:37:51;8.75;;;2.80;;
30723;SDS011;17473;52.286;20.930;2023-08-24T02:40:18;8.73;;;3.13;;
30723;SDS011;17473;52.286;20.930;2023-08-24T02:42:45;8.57;;;3.30;;
30723;SDS011;17473;52.286;20.930;2023-08-24T02:45:12;4.55;;;2.75;;
30723;SDS011;17473;52.286;20.930;2023-08-24T02:47:40;5.75;;;3.17;;
30723;SDS011;17473;52.286;20.930;2023-08-24T02:50:07;4.70;;;3.25;;
30723;SDS011;17473;52.286;20.930;2023-08-24T02:52:35;7.15;;;3.63;;
30723;SDS011;17473;52.286;20.930;2023-08-24T02:55:02;8.25;;;3.28;;
30723;SDS011;17473;52.286;20.930;2023-08-24T02:57:30;9.57;;;3.97;;
30723;SDS011;17473;52.286;20.930;2023-08-24T02:59:57;7.60;;;3.53;;
30723;SDS011;17473;52.286;20.930;2023-08-24T03:02:24;5.88;;;3.28;;
30723;SDS011;17473;52.286;20.930;2023-08-24T03:04:51;7.80;;;3.28;;
30723;SDS011;17473;52.286;20.930;2023-08-24T03:07:18;5.88;;;3.00;;
30723;SDS011;17473;52.286;20.930;2023-08-24T03:09:45;6.38;;;3.20;;
30723;SDS011;17473;52.286;20.930;2023-08-24T03:12:12;9.55;;;3.83;;
30723;SDS011;17473;52.286;20.930;2023-08-24T03:14:39;5.75;;;2.70;;
30723;SDS011;17473;52.286;20.930;2023-08-24T03:17:06;5.63;;;2.85;;
30723;SDS011;17473;52.286;20.930;2023-08-24T03:19:34;3.65;;;2.70;;
30723;SDS011;17473;52.286;20.930;2023-08-24T03:22:01;5.43;;;3.15;;
30723;SDS011;17473;52.286;20.930;2023-08-24T03:24:28;9.93;;;3.13;;
30723;SDS011;17473;52.286;20.930;2023-08-24T03:26:55;4.53;;;2.97;;
30723;SDS011;17473;52.286;20.930;2023-08-24T03:29:22;7.57;;;3.28;;
30723;SDS011;17473;52.286;20.930;2023-08-24T03:31:49;6.05;;;3.42;;
30723;SDS011;17473;52.286;20.930;2023-08-24T03:34:16;3.80;;;2.80;;
30723;SDS011;17473;52.286;20.930;2023-08-24T03:36:43;8.02;;;2.58;;
30723;SDS011;17473;52.286;20.930;2023-08-24T03:39:10;6.53;;;2.85;;
30723;SDS011;17473;52.286;20.930;2023-08-24T03:41:38;6.13;;;2.80;;
30723;SDS011;17473;52.286;20.930;2023-08-24T03:44:05;5.20;;;2.50;;
30723;SDS011;17473;52.286;20.930;2023-08-24T03:46:32;7.30;;;3.45;;
30723;SDS011;17473;52.286;20.930;2023-08-24T03:49:00;6.88;;;3.42;;
30723;SDS011;17473;52.286;20.930;2023-08-24T03:51:27;6.15;;;3.13;;
30723;SDS011;17473;52.286;20.930;2023-08-24T03:53:54;6.72;;;2.67;;
30723;SDS011;17473;52.286;20.930;2023-08-24T03:56:21;5.65;;;2.90;;
30723;SDS011;17473;52.286;20.930;2023-08-24T03:58:48;5.85;;;3.15;;
30723;SDS011;17473;52.286;20.930;2023-08-24T04:01:15;7.35;;;2.97;;
30723;SDS011;17473;52.286;20.930;2023-08-24T04:03:43;7.03;;;3.45;;
30723;SDS011;17473;52.286;20.930;2023-08-24T04:06:10;6.72;;;2.60;;
30723;SDS011;17473;52.286;20.930;2023-08-24T04:08:37;11.65;;;3.05;;
30723;SDS011;17473;52.286;20.930;2023-08-24T04:11:04;6.85;;;3.13;;
30723;SDS011;17473;52.286;20.930;2023-08-24T04:13:31;6.45;;;3.10;;
30723;SDS011;17473;52.286;20.930;2023-08-24T04:15:58;4.40;;;3.03;;
30723;SDS011;17473;52.286;20.930;2023-08-24T04:18:25;6.05;;;2.70;;
30723;SDS011;17473;52.286;20.930;2023-08-24T04:20:52;6.20;;;3.50;;
30723;SDS011;17473;52.286;20.930;2023-08-24T04:23:23;6.75;;;2.88;;
30723;SDS011;17473;52.286;20.930;2023-08-24T04:25:54;6.65;;;2.97;;
30723;SDS011;17473;52.286;20.930;2023-08-24T04:28:21;5.20;;;3.03;;
30723;SDS011;17473;52.286;20.930;2023-08-24T04:30:50;6.63;;;3.03;;
30723;SDS011;17473;52.286;20.930;2023-08-24T04:33:22;2.92;;;2.47;;
30723;SDS011;17473;52.286;20.930;2023-08-24T04:35:50;4.93;;;2.63;;
30723;SDS011;17473;52.286;20.930;2023-08-24T04:38:17;5.68;;;3.03;;
30723;SDS011;17473;52.286;20.930;2023-08-24T04:40:55;6.43;;;3.10;;
30723;SDS011;17473;52.286;20.930;2023-08-24T04:43:22;8.10;;;3.15;;
30723;SDS011;17473;52.286;20.930;2023-08-24T04:45:51;6.18;;;2.97;;
30723;SDS011;17473;52.286;20.930;2023-08-24T04:48:20;5.05;;;2.83;;
30723;SDS011;17473;52.286;20.930;2023-08-24T04:50:49;6.28;;;3.20;;
30723;SDS011;17473;52.286;20.930;2023-08-24T04:53:17;7.90;;;3.20;;
30723;SDS011;17473;52.286;20.930;2023-08-24T04:55:45;12.45;;;3.25;;
30723;SDS011;17473;52.286;20.930;2023-08-24T04:58:13;9.65;;;2.78;;
30723;SDS011;17473;52.286;20.930;2023-08-24T05:00:40;8.07;;;2.70;;
30723;SDS011;17473;52.286;20.930;2023-08-24T05:03:07;9.25;;;2.38;;
30723;SDS011;17473;52.286;20.930;2023-08-24T05:05:37;4.82;;;2.90;;
30723;SDS011;17473;52.286;20.930;2023-08-24T05:08:04;7.65;;;2.90;;
30723;SDS011;17473;52.286;20.930;2023-08-24T05:10:34;6.45;;;2.83;;
30723;SDS011;17473;52.286;20.930;2023-08-24T05:13:02;8.15;;;3.22;;
30723;SDS011;17473;52.286;20.930;2023-08-24T05:15:29;7.10;;;2.80;;
30723;SDS011;17473;52.286;20.930;2023-08-24T05:17:56;7.82;;;3.30;;
30723;SDS011;17473;52.286;20.930;2023-08-24T05:20:26;9.52;;;4.40;;
30723;SDS011;17473;52.286;20.930;2023-08-24T05:22:53;6.75;;;3.15;;
30723;SDS011;17473;52.286;20.930;2023-08-24T05:25:21;3.90;;;2.85;;
30723;SDS011;17473;52.286;20.930;2023-08-24T05:27:49;6.85;;;2.78;;
30723;SDS011;17473;52.286;20.930;2023-08-24T05:30:17;6.43;;;3.30;;
30723;SDS011;17473;52.286;20.930;2023-08-24T05:32:44;5.70;;;2.45;;
30723;SDS011;17473;52.286;20.930;2023-08-24T05:35:11;6.22;;;3.08;;
30723;SDS011;17473;52.286;20.930;2023-08-24T05:37:39;6.95;;;2.72;;
30723;SDS011;17473;52.286;20.930;2023-08-24T05:40:06;8.32;;;2.92;;
30723;SDS011;17473;52.286;20.930;2023-08-24T05:42:33;3.88;;;2.25;;
30723;SDS011;17473;52.286;20.930;2023-08-24T05:45:03;4.57;;;2.45;;
30723;SDS011;17473;52.286;20.930;2023-08-24T05:47:30;6.97;;;2.85;;
30723;SDS011;17473;52.286;20.930;2023-08-24T05:49:58;4.43;;;2.88;;
30723;SDS011;17473;52.286;20.930;2023-08-24T05:52:25;9.50;;;3.67;;
30723;SDS011;17473;52.286;20.930;2023-08-24T05:54:52;4.82;;;2.40;;
30723;SDS011;17473;52.286;20.930;2023-08-24T05:57:19;4.65;;;2.70;;
30723;SDS011;17473;52.286;20.930;2023-08-24T05:59:47;6.50;;;2.42;;
30723;SDS011;17473;52.286;20.930;2023-08-24T06:02:14;9.10;;;2.88;;
30723;SDS011;17473;52.286;20.930;2023-08-24T06:04:41;9.07;;;2.60;;
30723;SDS011;17473;52.286;20.930;2023-08-24T06:07:08;9.52;;;2.78;;
30723;SDS011;17473;52.286;20.930;2023-08-24T06:09:35;4.07;;;2.38;;
30723;SDS011;17473;52.286;20.930;2023-08-24T06:12:02;4.32;;;2.88;;
30723;SDS011;17473;52.286;20.930;2023-08-24T06:14:30;7.68;;;3.22;;
30723;SDS011;17473;52.286;20.930;2023-08-24T06:16:57;4.57;;;2.70;;
30723;SDS011;17473;52.286;20.930;2023-08-24T06:19:24;6.90;;;2.85;;
30723;SDS011;17473;52.286;20.930;2023-08-24T06:21:51;7.30;;;3.03;;
30723;SDS011;17473;52.286;20.930;2023-08-24T06:24:18;3.90;;;2.42;;
30723;SDS011;17473;52.286;20.930;2023-08-24T06:26:45;4.60;;;2.22;;
30723;SDS011;17473;52.286;20.930;2023-08-24T06:29:12;10.30;;;3.33;;
30723;SDS011;17473;52.286;20.930;2023-08-24T06:31:40;6.30;;;2.47;;
30723;SDS011;17473;52.286;20.930;2023-08-24T06:34:07;10.60;;;3.05;;
30723;SDS011;17473;52.286;20.930;2023-08-24T06:36:34;14.60;;;3.00;;
30723;SDS011;17473;52.286;20.930;2023-08-24T06:39:01;6.38;;;2.40;;
30723;SDS011;17473;52.286;20.930;2023-08-24T06:41:34;4.47;;;2.22;;
30723;SDS011;17473;52.286;20.930;2023-08-24T06:44:01;8.40;;;2.10;;
30723;SDS011;17473;52.286;20.930;2023-08-24T06:46:29;3.40;;;2.20;;
30723;SDS011;17473;52.286;20.930;2023-08-24T06:48:56;7.85;;;2.33;;
30723;SDS011;17473;52.286;20.930;2023-08-24T06:51:24;4.00;;;2.40;;
30723;SDS011;17473;52.286;20.930;2023-08-24T06:53:52;6.40;;;2.10;;
30723;SDS011;17473;52.286;20.930;2023-08-24T06:56:19;12.32;;;2.53;;
30723;SDS011;17473;52.286;20.930;2023-08-24T06:58:47;9.50;;;2.55;;
30723;SDS011;17473;52.286;20.930;2023-08-24T07:01:14;11.10;;;2.40;;
30723;SDS011;17473;52.286;20.930;2023-08-24T07:03:42;5.53;;;2.08;;
30723;SDS011;17473;52.286;20.930;2023-08-24T07:06:09;6.68;;;2.03;;
30723;SDS011;17473;52.286;20.930;2023-08-24T07:08:38;5.47;;;2.05;;
30723;SDS011;17473;52.286;20.930;2023-08-24T07:11:05;7.78;;;2.60;;
30723;SDS011;17473;52.286;20.930;2023-08-24T07:13:33;7.57;;;2.38;;
30723;SDS011;17473;52.286;20.930;2023-08-24T07:16:01;5.53;;;2.00;;
30723;SDS011;17473;52.286;20.930;2023-08-24T07:18:29;4.60;;;2.53;;
30723;SDS011;17473;52.286;20.930;2023-08-24T07:20:56;7.30;;;2.08;;
30723;SDS011;17473;52.286;20.930;2023-08-24T07:23:23;4.90;;;2.20;;
30723;SDS011;17473;52.286;20.930;2023-08-24T07:25:51;5.28;;;1.90;;
30723;SDS011;17473;52.286;20.930;2023-08-24T07:28:18;4.25;;;2.10;;
30723;SDS011;17473;52.286;20.930;2023-08-24T07:30:45;4.40;;;1.83;;
30723;SDS011;17473;52.286;20.930;2023-08-24T07:33:12;3.35;;;2.40;;
30723;SDS011;17473;52.286;20.930;2023-08-24T07:35:39;3.90;;;2.15;;
30723;SDS011;17473;52.286;20.930;2023-08-24T07:38:06;5.13;;;2.20;;
30723;SDS011;17473;52.286;20.930;2023-08-24T07:40:33;6.82;;;1.80;;
30723;SDS011;17473;52.286;20.930;2023-08-24T07:43:00;3.95;;;2.00;;
30723;SDS011;17473;52.286;20.930;2023-08-24T07:45:27;6.15;;;1.90;;
30723;SDS011;17473;52.286;20.930;2023-08-24T07:47:54;5.47;;;2.17;;
30723;SDS011;17473;52.286;20.930;2023-08-24T07:50:22;5.32;;;2.55;;
30723;SDS011;17473;52.286;20.930;2023-08-24T07:52:49;8.07;;;2.78;;
30723;SDS011;17473;52.286;20.930;2023-08-24T07:55:16;4.88;;;2.45;;
30723;SDS011;17473;52.286;20.930;2023-08-24T07:57:44;6.38;;;3.20;;
30723;SDS011;17473;52.286;20.930;2023-08-24T08:00:11;6.25;;;2.30;;
30723;SDS011;17473;52.286;20.930;2023-08-24T08:02:40;6.72;;;2.55;;
30723;SDS011;17473;52.286;20.930;2023-08-24T08:05:08;5.30;;;2.45;;
30723;SDS011;17473;52.286;20.930;2023-08-24T08:07:37;6.47;;;2.60;;
30723;SDS011;17473;52.286;20.930;2023-08-24T08:10:05;10.55;;;2.42;;
30723;SDS011;17473;52.286;20.930;2023-08-24T08:12:33;7.57;;;2.65;;
30723;SDS011;17473;52.286;20.930;2023-08-24T08:15:00;6.57;;;2.10;;
30723;SDS011;17473;52.286;20.930;2023-08-24T08:17:28;5.63;;;2.10;;
30723;SDS011;17473;52.286;20.930;2023-08-24T08:19:57;4.60;;;2.13;;
30723;SDS011;17473;52.286;20.930;2023-08-24T08:22:24;5.47;;;2.05;;
30723;SDS011;17473;52.286;20.930;2023-08-24T08:24:52;7.70;;;2.63;;
30723;SDS011;17473;52.286;20.930;2023-08-24T08:27:20;3.90;;;2.10;;
30723;SDS011;17473;52.286;20.930;2023-08-24T08:29:48;6.53;;;2.25;;
30723;SDS011;17473;52.286;20.930;2023-08-24T08:32:17;4.15;;;2.35;;
30723;SDS011;17473;52.286;20.930;2023-08-24T08:34:44;2.53;;;2.00;;
30723;SDS011;17473;52.286;20.930;2023-08-24T08:37:11;4.18;;;1.90;;
30723;SDS011;17473;52.286;20.930;2023-08-24T08:39:38;9.43;;;2.42;;
30723;SDS011;17473;52.286;20.930;2023-08-24T08:42:10;5.68;;;2.50;;
30723;SDS011;17473;52.286;20.930;2023-08-24T08:44:40;6.15;;;2.08;;
30723;SDS011;17473;52.286;20.930;2023-08-24T08:47:10;6.25;;;2.63;;
30723;SDS011;17473;52.286;20.930;2023-08-24T08:49:59;5.80;;;2.13;;
30723;SDS011;17473;52.286;20.930;2023-08-24T08:52:27;3.38;;;1.95;;
30723;SDS011;17473;52.286;20.930;2023-08-24T08:54:54;4.70;;;2.15;;
30723;SDS011;17473;52.286;20.930;2023-08-24T08:57:22;6.88;;;1.95;;
30723;SDS011;17473;52.286;20.930;2023-08-24T08:59:54;5.70;;;2.65;;
30723;SDS011;17473;52.286;20.930;2023-08-24T09:02:21;5.80;;;2.20;;
30723;SDS011;17473;52.286;20.930;2023-08-24T09:04:50;4.43;;;1.90;;
30723;SDS011;17473;52.286;20.930;2023-08-24T09:07:18;5.22;;;1.90;;
30723;SDS011;17473;52.286;20.930;2023-08-24T09:09:47;6.95;;;2.35;;
30723;SDS011;17473;52.286;20.930;2023-08-24T09:12:14;6.95;;;1.92;;
30723;SDS011;17473;52.286;20.930;2023-08-24T09:14:41;5.85;;;2.38;;
30723;SDS011;17473;52.286;20.930;2023-08-24T09:17:08;7.95;;;2.53;;
30723;SDS011;17473;52.286;20.930;2023-08-24T09:19:35;4.75;;;2.25;;
30723;SDS011;17473;52.286;20.930;2023-08-24T09:22:05;11.10;;;2.08;;
30723;SDS011;17473;52.286;20.930;2023-08-24T09:24:35;5.32;;;1.90;;
30723;SDS011;17473;52.286;20.930;2023-08-24T09:27:15;6.20;;;1.73;;
30723;SDS011;17473;52.286;20.930;2023-08-24T09:29:52;4.57;;;1.88;;
30723;SDS011;17473;52.286;20.930;2023-08-24T09:32:29;3.65;;;2.05;;
30723;SDS011;17473;52.286;20.930;2023-08-24T09:37:35;6.45;;;2.20;;
30723;SDS011;17473;52.286;20.930;2023-08-24T09:40:06;4.28;;;2.03;;
30723;SDS011;17473;52.286;20.930;2023-08-24T09:42:38;2.25;;;1.92;;
30723;SDS011;17473;52.286;20.930;2023-08-24T09:45:11;3.72;;;2.60;;
30723;SDS011;17473;52.286;20.930;2023-08-24T09:47:50;3.78;;;2.03;;
30723;SDS011;17473;52.286;20.930;2023-08-24T09:50:18;5.88;;;2.00;;
30723;SDS011;17473;52.286;20.930;2023-08-24T09:52:47;5.18;;;2.30;;
30723;SDS011;17473;52.286;20.930;2023-08-24T09:55:19;4.95;;;2.88;;
30723;SDS011;17473;52.286;20.930;2023-08-24T09:57:50;3.95;;;1.83;;
30723;SDS011;17473;52.286;20.930;2023-08-24T10:00:21;4.45;;;2.30;;
30723;SDS011;17473;52.286;20.930;2023-08-24T10:02:51;4.88;;;2.13;;
30723;SDS011;17473;52.286;20.930;2023-08-24T10:05:23;4.97;;;1.75;;
30723;SDS011;17473;52.286;20.930;2023-08-24T10:08:10;5.55;;;1.80;;
30723;SDS011;17473;52.286;20.930;2023-08-24T10:10:39;3.63;;;2.00;;
30723;SDS011;17473;52.286;20.930;2023-08-24T10:13:11;4.43;;;2.10;;
30723;SDS011;17473;52.286;20.930;2023-08-24T10:15:48;5.05;;;1.95;;
30723;SDS011;17473;52.286;20.930;2023-08-24T10:18:18;4.07;;;2.30;;
30723;SDS011;17473;52.286;20.930;2023-08-24T10:20:45;10.68;;;2.30;;
30723;SDS011;17473;52.286;20.930;2023-08-24T10:23:14;3.45;;;2.22;;
30723;SDS011;17473;52.286;20.930;2023-08-24T10:25:42;2.88;;;1.67;;
30723;SDS011;17473;52.286;20.930;2023-08-24T10:28:10;8.00;;;2.20;;
30723;SDS011;17473;52.286;20.930;2023-08-24T10:30:38;3.22;;;2.10;;
30723;SDS011;17473;52.286;20.930;2023-08-24T10:33:07;5.80;;;2.60;;
30723;SDS011;17473;52.286;20.930;2023-08-24T10:35:34;5.43;;;2.38;;
30723;SDS011;17473;52.286;20.930;2023-08-24T10:38:02;4.25;;;1.77;;
30723;SDS011;17473;52.286;20.930;2023-08-24T10:40:33;4.15;;;1.83;;
30723;SDS011;17473;52.286;20.930;2023-08-24T10:43:02;4.72;;;1.90;;
30723;SDS011;17473;52.286;20.930;2023-08-24T10:48:24;5.68;;;2.25;;
30723;SDS011;17473;52.286;20.930;2023-08-24T10:53:55;3.78;;;2.00;;
30723;SDS011;17473;52.286;20.930;2023-08-24T10:56:33;2.85;;;1.80;;
30723;SDS011;17473;52.286;20.930;2023-08-24T10:59:17;2.38;;;1.60;;
30723;SDS011;17473;52.286;20.930;2023-08-24T11:04:19;3.58;;;1.95;;
30723;SDS011;17473;52.286;20.930;2023-08-24T11:06:56;7.75;;;1.85;;
30723;SDS011;17473;52.286;20.930;2023-08-24T11:09:25;3.60;;;1.77;;
30723;SDS011;17473;52.286;20.930;2023-08-24T11:12:10;4.95;;;1.73;;
30723;SDS011;17473;52.286;20.930;2023-08-24T11:14:48;5.00;;;1.70;;
30723;SDS011;17473;52.286;20.930;2023-08-24T11:17:26;3.20;;;1.63;;
30723;SDS011;17473;52.286;20.930;2023-08-24T11:20:00;4.38;;;1.75;;
30723;SDS011;17473;52.286;20.930;2023-08-24T11:22:31;6.22;;;2.70;;
30723;SDS011;17473;52.286;20.930;2023-08-24T11:25:00;5.60;;;2.95;;
30723;SDS011;17473;52.286;20.930;2023-08-24T11:27:27;4.47;;;2.13;;
30723;SDS011;17473;52.286;20.930;2023-08-24T11:29:58;5.95;;;2.40;;
30723;SDS011;17473;52.286;20.930;2023-08-24T11:32:27;4.57;;;2.22;;
30723;SDS011;17473;52.286;20.930;2023-08-24T11:34:54;9.43;;;2.20;;
30723;SDS011;17473;52.286;20.930;2023-08-24T11:37:21;4.60;;;2.00;;
30723;SDS011;17473;52.286;20.930;2023-08-24T11:39:48;2.72;;;1.77;;
30723;SDS011;17473;52.286;20.930;2023-08-24T11:42:15;4.45;;;1.95;;
30723;SDS011;17473;52.286;20.930;2023-08-24T11:44:49;6.00;;;1.77;;
30723;SDS011;17473;52.286;20.930;2023-08-24T11:47:16;3.50;;;1.70;;
30723;SDS011;17473;52.286;20.930;2023-08-24T11:49:46;3.85;;;1.77;;
30723;SDS011;17473;52.286;20.930;2023-08-24T11:52:14;3.65;;;2.38;;
30723;SDS011;17473;52.286;20.930;2023-08-24T11:54:42;5.55;;;2.20;;
30723;SDS011;17473;52.286;20.930;2023-08-24T11:57:10;5.07;;;2.25;;
30723;SDS011;17473;52.286;20.930;2023-08-24T11:59:38;5.05;;;2.20;;
30723;SDS011;17473;52.286;20.930;2023-08-24T12:02:06;10.48;;;2.42;;
30723;SDS011;17473;52.286;20.930;2023-08-24T12:04:38;2.88;;;2.10;;
30723;SDS011;17473;52.286;20.930;2023-08-24T12:07:12;6.68;;;2.13;;
30723;SDS011;17473;52.286;20.930;2023-08-24T12:09:40;8.20;;;2.45;;
30723;SDS011;17473;52.286;20.930;2023-08-24T12:12:12;3.15;;;2.20;;
30723;SDS011;17473;52.286;20.930;2023-08-24T12:14:44;3.33;;;2.05;;
30723;SDS011;17473;52.286;20.930;2023-08-24T12:17:13;5.38;;;2.15;;
30723;SDS011;17473;52.286;20.930;2023-08-24T12:19:42;9.52;;;2.13;;
30723;SDS011;17473;52.286;20.930;2023-08-24T12:22:13;5.45;;;1.90;;
30723;SDS011;17473;52.286;20.930;2023-08-24T12:24:43;3.38;;;2.08;;
30723;SDS011;17473;52.286;20.930;2023-08-24T12:27:22;8.75;;;2.22;;
30723;SDS011;17473;52.286;20.930;2023-08-24T12:29:52;7.82;;;1.73;;
30723;SDS011;17473;52.286;20.930;2023-08-24T12:32:20;2.28;;;1.77;;
30723;SDS011;17473;52.286;20.930;2023-08-24T12:34:52;5.05;;;1.75;;
30723;SDS011;17473;52.286;20.930;2023-08-24T12:37:21;3.72;;;2.20;;
30723;SDS011;17473;52.286;20.930;2023-08-24T12:39:48;5.25;;;2.35;;
30723;SDS011;17473;52.286;20.930;2023-08-24T12:42:15;5.45;;;2.40;;
30723;SDS011;17473;52.286;20.930;2023-08-24T12:44:42;3.55;;;1.95;;
30723;SDS011;17473;52.286;20.930;2023-08-24T12:47:09;5.50;;;1.65;;
30723;SDS011;17473;52.286;20.930;2023-08-24T12:49:36;4.68;;;2.10;;
30723;SDS011;17473;52.286;20.930;2023-08-24T12:52:04;8.45;;;2.72;;
30723;SDS011;17473;52.286;20.930;2023-08-24T12:54:31;7.03;;;2.25;;
30723;SDS011;17473;52.286;20.930;2023-08-24T12:56:58;8.27;;;1.92;;
30723;SDS011;17473;52.286;20.930;2023-08-24T12:59:25;3.45;;;2.42;;
30723;SDS011;17473;52.286;20.930;2023-08-24T13:01:52;4.63;;;2.28;;
30723;SDS011;17473;52.286;20.930;2023-08-24T13:04:19;9.07;;;1.95;;
30723;SDS011;17473;52.286;20.930;2023-08-24T13:06:46;5.07;;;2.20;;
30723;SDS011;17473;52.286;20.930;2023-08-24T13:09:13;4.15;;;2.15;;
30723;SDS011;17473;52.286;20.930;2023-08-24T13:11:40;2.63;;;1.95;;
30723;SDS011;17473;52.286;20.930;2023-08-24T13:14:07;2.20;;;1.75;;
30723;SDS011;17473;52.286;20.930;2023-08-24T13:16:35;6.85;;;2.20;;
30723;SDS011;17473;52.286;20.930;2023-08-24T13:19:02;4.82;;;2.50;;
30723;SDS011;17473;52.286;20.930;2023-08-24T13:21:29;2.67;;;2.10;;
30723;SDS011;17473;52.286;20.930;2023-08-24T13:23:56;5.80;;;2.65;;
30723;SDS011;17473;52.286;20.930;2023-08-24T13:26:23;4.88;;;2.40;;
30723;SDS011;17473;52.286;20.930;2023-08-24T13:28:50;3.83;;;2.00;;
30723;SDS011;17473;52.286;20.930;2023-08-24T13:31:18;3.50;;;2.30;;
30723;SDS011;17473;52.286;20.930;2023-08-24T13:33:45;8.52;;;2.38;;
30723;SDS011;17473;52.286;20.930;2023-08-24T13:36:12;3.55;;;2.10;;
30723;SDS011;17473;52.286;20.930;2023-08-24T13:38:39;5.22;;;2.53;;
30723;SDS011;17473;52.286;20.930;2023-08-24T13:41:06;6.20;;;2.15;;
30723;SDS011;17473;52.286;20.930;2023-08-24T13:43:34;5.43;;;2.63;;
30723;SDS011;17473;52.286;20.930;2023-08-24T13:46:01;4.20;;;2.25;;
30723;SDS011;17473;52.286;20.930;2023-08-24T13:48:30;10.55;;;4.57;;
30723;SDS011;17473;52.286;20.930;2023-08-24T13:51:00;8.48;;;2.90;;
30723;SDS011;17473;52.286;20.930;2023-08-24T13:53:27;4.25;;;2.03;;
30723;SDS011;17473;52.286;20.930;2023-08-24T13:55:55;3.47;;;2.15;;
30723;SDS011;17473;52.286;20.930;2023-08-24T13:58:22;3.05;;;2.17;;
30723;SDS011;17473;52.286;20.930;2023-08-24T14:00:54;3.20;;;2.17;;
30723;SDS011;17473;52.286;20.930;2023-08-24T14:03:23;5.28;;;2.22;;
30723;SDS011;17473;52.286;20.930;2023-08-24T14:05:56;7.45;;;1.98;;
30723;SDS011;17473;52.286;20.930;2023-08-24T14:08:24;3.88;;;2.15;;
30723;SDS011;17473;52.286;20.930;2023-08-24T14:10:51;3.95;;;2.00;;
30723;SDS011;17473;52.286;20.930;2023-08-24T14:13:19;4.80;;;2.30;;
30723;SDS011;17473;52.286;20.930;2023-08-24T14:15:50;8.20;;;2.45;;
30723;SDS011;17473;52.286;20.930;2023-08-24T14:18:18;6.18;;;2.17;;
30723;SDS011;17473;52.286;20.930;2023-08-24T14:20:46;4.68;;;2.38;;
30723;SDS011;17473;52.286;20.930;2023-08-24T14:23:14;8.23;;;2.35;;
30723;SDS011;17473;52.286;20.930;2023-08-24T14:25:41;4.10;;;2.30;;
30723;SDS011;17473;52.286;20.930;2023-08-24T14:28:08;4.07;;;2.58;;
30723;SDS011;17473;52.286;20.930;2023-08-24T14:30:38;8.27;;;2.13;;
30723;SDS011;17473;52.286;20.930;2023-08-24T14:33:06;5.40;;;2.10;;
30723;SDS011;17473;52.286;20.930;2023-08-24T14:35:33;5.82;;;2.33;;
30723;SDS011;17473;52.286;20.930;2023-08-24T14:38:00;5.13;;;2.15;;
30723;SDS011;17473;52.286;20.930;2023-08-24T14:40:27;8.80;;;2.60;;
30723;SDS011;17473;52.286;20.930;2023-08-24T14:42:54;5.50;;;2.20;;
30723;SDS011;17473;52.286;20.930;2023-08-24T14:45:21;4.72;;;2.83;;
30723;SDS011;17473;52.286;20.930;2023-08-24T14:47:48;7.63;;;2.10;;
30723;SDS011;17473;52.286;20.930;2023-08-24T14:50:16;5.50;;;1.67;;
30723;SDS011;17473;52.286;20.930;2023-08-24T14:52:44;6.82;;;2.22;;
30723;SDS011;17473;52.286;20.930;2023-08-24T14:55:11;3.20;;;2.25;;
30723;SDS011;17473;52.286;20.930;2023-08-24T14:57:39;5.43;;;1.70;;
30723;SDS011;17473;52.286;20.930;2023-08-24T15:00:06;2.95;;;2.20;;
30723;SDS011;17473;52.286;20.930;2023-08-24T15:02:36;4.30;;;2.03;;
30723;SDS011;17473;52.286;20.930;2023-08-24T15:05:04;3.95;;;1.98;;